sensor_id;sensor_type;location;lat;lon;timestamp;P1;durP1;ratioP1;P2;durP2;ratioP2
5173;SDS011;2606;50.934;6.934;2023-02-15T00:01:32;29.07;;;12.70;;
5173;SDS011;2606;50.934;6.934;2023-02-15T00:03:58;35.13;;;14.37;;
5173;SDS011;2606;50.934;6.934;2023-02-15T00:06:24;28.60;;;13.53;;
5173;SDS011;2606;50.934;6.934;2023-02-15T00:08:50;26.33;;;12.40;;
5173;SDS011;2606;50.934;6.934;2023-02-15T00:11:16;30.47;;;13.30;;
5173;SDS011;2606;50.934;6.934;2023-02-15T00:14:13;35.27;;;16.50;;
5173;SDS011;2606;50.934;6.934;2023-02-15T00:16:40;41.03;;;18.10;;
5173;SDS011;2606;50.934;6.934;2023-02-15T00:19:07;31.37;;;13.73;;
5173;SDS011;2606;50.934;6.934;2023-02-15T00:21:34;26.90;;;12.60;;
5173;SDS011;2606;50.934;6.934;2023-02-15T00:24:00;34.07;;;13.87;;
5173;SDS011;2606;50.934;6.934;2023-02-15T00:26:28;27.57;;;12.07;;
5173;SDS011;2606;50.934;6.934;2023-02-15T00:28:57;29.50;;;13.70;;
5173;SDS011;2606;50.934;6.934;2023-02-15T00:31:26;34.95;;;16.67;;
5173;SDS011;2606;50.934;6.934;2023-02-15T00:33:55;27.10;;;13.10;;
5173;SDS011;2606;50.934;6.934;2023-02-15T00:36:21;31.50;;;13.40;;
5173;SDS011;2606;50.934;6.934;2023-02-15T00:38:46;31.17;;;14.67;;
5173;SDS011;2606;50.934;6.934;2023-02-15T00:41:12;32.93;;;14.63;;
5173;SDS011;2606;50.934;6.934;2023-02-15T00:43:37;29.77;;;12.67;;
5173;SDS011;2606;50.934;6.934;2023-02-15T00:46:04;32.47;;;14.23;;
5173;SDS011;2606;50.934;6.934;2023-02-15T00:48:30;28.10;;;12.77;;
5173;SDS011;2606;50.934;6.934;2023-02-15T00:50:56;33.03;;;14.37;;
5173;SDS011;2606;50.934;6.934;2023-02-15T00:53:24;25.90;;;11.53;;
5173;SDS011;2606;50.934;6.934;2023-02-15T00:55:51;29.43;;;13.97;;
5173;SDS011;2606;50.934;6.934;2023-02-15T00:58:17;28.27;;;12.40;;
5173;SDS011;2606;50.934;6.934;2023-02-15T01:00:43;29.00;;;13.50;;
5173;SDS011;2606;50.934;6.934;2023-02-15T01:03:10;32.70;;;14.20;;
5173;SDS011;2606;50.934;6.934;2023-02-15T01:05:37;28.53;;;13.40;;
5173;SDS011;2606;50.934;6.934;2023-02-15T01:08:02;27.83;;;12.30;;
5173;SDS011;2606;50.934;6.934;2023-02-15T01:10:28;28.60;;;11.37;;
5173;SDS011;2606;50.934;6.934;2023-02-15T01:12:54;28.43;;;13.00;;
5173;SDS011;2606;50.934;6.934;2023-02-15T01:15:20;31.33;;;14.50;;
5173;SDS011;2606;50.934;6.934;2023-02-15T01:17:46;31.40;;;14.03;;
5173;SDS011;2606;50.934;6.934;2023-02-15T01:20:20;28.40;;;11.80;;
5173;SDS011;2606;50.934;6.934;2023-02-15T01:22:47;28.70;;;12.80;;
5173;SDS011;2606;50.934;6.934;2023-02-15T01:25:14;27.23;;;12.90;;
5173;SDS011;2606;50.934;6.934;2023-02-15T01:27:49;32.27;;;13.30;;
5173;SDS011;2606;50.934;6.934;2023-02-15T01:30:17;33.47;;;13.27;;
5173;SDS011;2606;50.934;6.934;2023-02-15T01:32:43;29.07;;;13.50;;
5173;SDS011;2606;50.934;6.934;2023-02-15T01:35:09;28.77;;;13.20;;
5173;SDS011;2606;50.934;6.934;2023-02-15T01:37:35;35.00;;;14.40;;
5173;SDS011;2606;50.934;6.934;2023-02-15T01:40:01;32.27;;;13.30;;
5173;SDS011;2606;50.934;6.934;2023-02-15T01:42:29;32.43;;;14.07;;
5173;SDS011;2606;50.934;6.934;2023-02-15T01:44:56;35.15;;;16.40;;
5173;SDS011;2606;50.934;6.934;2023-02-15T01:47:58;30.30;;;12.87;;
5173;SDS011;2606;50.934;6.934;2023-02-15T01:50:33;28.23;;;13.80;;
5173;SDS011;2606;50.934;6.934;2023-02-15T01:55:38;24.37;;;11.37;;
5173;SDS011;2606;50.934;6.934;2023-02-15T01:58:07;32.20;;;13.00;;
5173;SDS011;2606;50.934;6.934;2023-02-15T02:00:33;33.23;;;13.37;;
5173;SDS011;2606;50.934;6.934;2023-02-15T02:03:00;36.60;;;14.17;;
5173;SDS011;2606;50.934;6.934;2023-02-15T02:05:26;29.30;;;13.13;;
5173;SDS011;2606;50.934;6.934;2023-02-15T02:07:54;33.83;;;14.00;;
5173;SDS011;2606;50.934;6.934;2023-02-15T02:10:22;30.50;;;14.07;;
5173;SDS011;2606;50.934;6.934;2023-02-15T02:12:49;24.97;;;12.30;;
5173;SDS011;2606;50.934;6.934;2023-02-15T02:15:23;26.93;;;11.90;;
5173;SDS011;2606;50.934;6.934;2023-02-15T02:18:16;34.80;;;13.70;;
5173;SDS011;2606;50.934;6.934;2023-02-15T02:24:13;29.70;;;12.00;;
5173;SDS011;2606;50.934;6.934;2023-02-15T02:26:58;25.97;;;12.00;;
5173;SDS011;2606;50.934;6.934;2023-02-15T02:38:07;28.87;;;11.90;;
5173;SDS011;2606;50.934;6.934;2023-02-15T02:43:20;27.13;;;12.00;;
5173;SDS011;2606;50.934;6.934;2023-02-15T02:46:16;31.53;;;13.17;;
5173;SDS011;2606;50.934;6.934;2023-02-15T02:48:45;23.73;;;11.07;;
5173;SDS011;2606;50.934;6.934;2023-02-15T02:51:12;29.53;;;12.93;;
5173;SDS011;2606;50.934;6.934;2023-02-15T02:53:39;28.70;;;11.93;;
5173;SDS011;2606;50.934;6.934;2023-02-15T02:56:06;26.10;;;13.20;;
5173;SDS011;2606;50.934;6.934;2023-02-15T02:58:58;30.43;;;12.33;;
5173;SDS011;2606;50.934;6.934;2023-02-15T03:01:34;26.97;;;12.20;;
5173;SDS011;2606;50.934;6.934;2023-02-15T03:04:16;32.77;;;12.40;;
5173;SDS011;2606;50.934;6.934;2023-02-15T03:06:54;32.47;;;12.27;;
5173;SDS011;2606;50.934;6.934;2023-02-15T03:09:27;27.93;;;12.17;;
5173;SDS011;2606;50.934;6.934;2023-02-15T03:11:59;29.87;;;12.73;;
5173;SDS011;2606;50.934;6.934;2023-02-15T03:14:28;23.93;;;11.07;;
5173;SDS011;2606;50.934;6.934;2023-02-15T03:16:53;27.00;;;12.10;;
5173;SDS011;2606;50.934;6.934;2023-02-15T03:19:22;31.73;;;12.80;;
5173;SDS011;2606;50.934;6.934;2023-02-15T03:21:53;28.30;;;12.60;;
5173;SDS011;2606;50.934;6.934;2023-02-15T03:25:10;26.57;;;11.23;;
5173;SDS011;2606;50.934;6.934;2023-02-15T03:27:36;26.50;;;11.43;;
5173;SDS011;2606;50.934;6.934;2023-02-15T03:30:06;22.97;;;11.93;;
5173;SDS011;2606;50.934;6.934;2023-02-15T03:32:33;34.17;;;12.97;;
5173;SDS011;2606;50.934;6.934;2023-02-15T03:35:02;23.17;;;11.03;;
5173;SDS011;2606;50.934;6.934;2023-02-15T03:43:04;24.07;;;10.57;;
5173;SDS011;2606;50.934;6.934;2023-02-15T03:45:45;28.00;;;11.57;;
5173;SDS011;2606;50.934;6.934;2023-02-15T03:48:26;33.00;;;12.80;;
5173;SDS011;2606;50.934;6.934;2023-02-15T03:50:57;31.10;;;12.03;;
5173;SDS011;2606;50.934;6.934;2023-02-15T03:53:45;24.27;;;11.20;;
5173;SDS011;2606;50.934;6.934;2023-02-15T03:56:13;29.30;;;12.20;;
5173;SDS011;2606;50.934;6.934;2023-02-15T03:58:39;24.10;;;11.80;;
5173;SDS011;2606;50.934;6.934;2023-02-15T04:04:28;26.40;;;10.90;;
5173;SDS011;2606;50.934;6.934;2023-02-15T04:07:00;32.57;;;11.60;;
5173;SDS011;2606;50.934;6.934;2023-02-15T04:09:26;30.37;;;12.43;;
5173;SDS011;2606;50.934;6.934;2023-02-15T04:12:10;25.67;;;10.90;;
5173;SDS011;2606;50.934;6.934;2023-02-15T04:14:36;31.90;;;12.20;;
5173;SDS011;2606;50.934;6.934;2023-02-15T04:17:20;28.70;;;12.67;;
5173;SDS011;2606;50.934;6.934;2023-02-15T04:19:46;25.97;;;12.50;;
5173;SDS011;2606;50.934;6.934;2023-02-15T04:22:30;31.30;;;12.70;;
5173;SDS011;2606;50.934;6.934;2023-02-15T04:25:14;28.83;;;11.67;;
5173;SDS011;2606;50.934;6.934;2023-02-15T04:27:44;32.90;;;14.48;;
5173;SDS011;2606;50.934;6.934;2023-02-15T04:30:12;31.50;;;13.23;;
5173;SDS011;2606;50.934;6.934;2023-02-15T04:32:39;27.93;;;11.23;;
5173;SDS011;2606;50.934;6.934;2023-02-15T04:35:05;27.33;;;11.80;;
5173;SDS011;2606;50.934;6.934;2023-02-15T04:37:31;35.07;;;12.73;;
5173;SDS011;2606;50.934;6.934;2023-02-15T04:39:57;26.20;;;11.13;;
5173;SDS011;2606;50.934;6.934;2023-02-15T04:42:26;32.20;;;12.90;;
5173;SDS011;2606;50.934;6.934;2023-02-15T04:44:52;23.90;;;11.40;;
5173;SDS011;2606;50.934;6.934;2023-02-15T04:47:18;31.60;;;13.27;;
5173;SDS011;2606;50.934;6.934;2023-02-15T04:49:44;26.90;;;12.97;;
5173;SDS011;2606;50.934;6.934;2023-02-15T04:52:10;27.93;;;12.00;;
5173;SDS011;2606;50.934;6.934;2023-02-15T04:54:35;25.47;;;10.80;;
5173;SDS011;2606;50.934;6.934;2023-02-15T04:57:01;24.33;;;11.50;;
5173;SDS011;2606;50.934;6.934;2023-02-15T04:59:27;28.47;;;12.10;;
5173;SDS011;2606;50.934;6.934;2023-02-15T05:01:52;29.93;;;11.60;;
5173;SDS011;2606;50.934;6.934;2023-02-15T05:04:18;24.97;;;11.20;;
5173;SDS011;2606;50.934;6.934;2023-02-15T05:06:44;27.90;;;12.33;;
5173;SDS011;2606;50.934;6.934;2023-02-15T05:09:10;27.57;;;11.10;;
5173;SDS011;2606;50.934;6.934;2023-02-15T05:11:36;31.67;;;13.00;;
5173;SDS011;2606;50.934;6.934;2023-02-15T05:14:02;29.63;;;12.40;;
5173;SDS011;2606;50.934;6.934;2023-02-15T05:16:28;30.43;;;12.37;;
5173;SDS011;2606;50.934;6.934;2023-02-15T05:18:53;33.53;;;12.90;;
5173;SDS011;2606;50.934;6.934;2023-02-15T05:21:19;34.67;;;11.70;;
5173;SDS011;2606;50.934;6.934;2023-02-15T05:23:45;24.70;;;9.93;;
5173;SDS011;2606;50.934;6.934;2023-02-15T05:26:15;23.90;;;10.83;;
5173;SDS011;2606;50.934;6.934;2023-02-15T05:29:02;30.80;;;12.70;;
5173;SDS011;2606;50.934;6.934;2023-02-15T05:31:28;25.50;;;10.77;;
5173;SDS011;2606;50.934;6.934;2023-02-15T05:33:53;29.27;;;12.37;;
5173;SDS011;2606;50.934;6.934;2023-02-15T05:36:19;27.00;;;11.60;;
5173;SDS011;2606;50.934;6.934;2023-02-15T05:38:44;27.43;;;11.67;;
5173;SDS011;2606;50.934;6.934;2023-02-15T05:41:10;28.57;;;12.33;;
5173;SDS011;2606;50.934;6.934;2023-02-15T05:43:36;26.27;;;11.50;;
5173;SDS011;2606;50.934;6.934;2023-02-15T05:46:02;21.80;;;10.20;;
5173;SDS011;2606;50.934;6.934;2023-02-15T05:48:29;27.33;;;10.47;;
5173;SDS011;2606;50.934;6.934;2023-02-15T05:53:31;24.57;;;9.50;;
5173;SDS011;2606;50.934;6.934;2023-02-15T05:55:58;27.30;;;11.50;;
5173;SDS011;2606;50.934;6.934;2023-02-15T05:58:29;25.83;;;10.90;;
5173;SDS011;2606;50.934;6.934;2023-02-15T06:00:56;28.27;;;11.40;;
5173;SDS011;2606;50.934;6.934;2023-02-15T06:03:22;22.67;;;10.67;;
5173;SDS011;2606;50.934;6.934;2023-02-15T06:05:48;24.37;;;10.63;;
5173;SDS011;2606;50.934;6.934;2023-02-15T06:08:14;19.77;;;9.80;;
5173;SDS011;2606;50.934;6.934;2023-02-15T06:10:40;23.77;;;10.40;;
5173;SDS011;2606;50.934;6.934;2023-02-15T06:13:06;23.17;;;10.03;;
5173;SDS011;2606;50.934;6.934;2023-02-15T06:15:32;25.23;;;10.00;;
5173;SDS011;2606;50.934;6.934;2023-02-15T06:17:57;28.63;;;11.17;;
5173;SDS011;2606;50.934;6.934;2023-02-15T06:20:23;22.90;;;10.60;;
5173;SDS011;2606;50.934;6.934;2023-02-15T06:22:49;26.13;;;11.17;;
5173;SDS011;2606;50.934;6.934;2023-02-15T06:25:14;25.50;;;10.80;;
5173;SDS011;2606;50.934;6.934;2023-02-15T06:27:41;25.43;;;10.20;;
5173;SDS011;2606;50.934;6.934;2023-02-15T06:30:07;22.20;;;9.90;;
5173;SDS011;2606;50.934;6.934;2023-02-15T06:32:33;24.57;;;10.50;;
5173;SDS011;2606;50.934;6.934;2023-02-15T06:34:59;27.93;;;10.93;;
5173;SDS011;2606;50.934;6.934;2023-02-15T06:37:24;22.90;;;10.17;;
5173;SDS011;2606;50.934;6.934;2023-02-15T06:39:50;22.10;;;10.00;;
5173;SDS011;2606;50.934;6.934;2023-02-15T06:42:16;25.57;;;10.67;;
5173;SDS011;2606;50.934;6.934;2023-02-15T06:44:43;22.90;;;10.23;;
5173;SDS011;2606;50.934;6.934;2023-02-15T06:47:09;25.30;;;10.80;;
5173;SDS011;2606;50.934;6.934;2023-02-15T06:49:35;22.93;;;10.40;;
5173;SDS011;2606;50.934;6.934;2023-02-15T06:52:01;22.60;;;10.50;;
5173;SDS011;2606;50.934;6.934;2023-02-15T06:54:26;23.80;;;11.03;;
5173;SDS011;2606;50.934;6.934;2023-02-15T06:56:52;24.63;;;11.20;;
5173;SDS011;2606;50.934;6.934;2023-02-15T06:59:17;22.77;;;10.10;;
5173;SDS011;2606;50.934;6.934;2023-02-15T07:01:43;27.30;;;10.43;;
5173;SDS011;2606;50.934;6.934;2023-02-15T07:04:09;20.43;;;9.43;;
5173;SDS011;2606;50.934;6.934;2023-02-15T07:06:34;22.73;;;10.33;;
5173;SDS011;2606;50.934;6.934;2023-02-15T07:09:01;21.37;;;10.10;;
5173;SDS011;2606;50.934;6.934;2023-02-15T07:11:26;26.40;;;10.40;;
5173;SDS011;2606;50.934;6.934;2023-02-15T07:14:11;24.73;;;9.90;;
5173;SDS011;2606;50.934;6.934;2023-02-15T07:16:37;21.50;;;9.57;;
5173;SDS011;2606;50.934;6.934;2023-02-15T07:19:03;24.43;;;9.97;;
5173;SDS011;2606;50.934;6.934;2023-02-15T07:21:28;27.00;;;10.63;;
5173;SDS011;2606;50.934;6.934;2023-02-15T07:23:57;20.80;;;8.97;;
5173;SDS011;2606;50.934;6.934;2023-02-15T07:26:23;26.10;;;11.60;;
5173;SDS011;2606;50.934;6.934;2023-02-15T07:28:49;24.80;;;11.77;;
5173;SDS011;2606;50.934;6.934;2023-02-15T07:31:14;25.50;;;11.77;;
5173;SDS011;2606;50.934;6.934;2023-02-15T07:33:40;22.00;;;9.27;;
5173;SDS011;2606;50.934;6.934;2023-02-15T07:36:06;21.23;;;9.90;;
5173;SDS011;2606;50.934;6.934;2023-02-15T07:38:35;20.70;;;9.60;;
5173;SDS011;2606;50.934;6.934;2023-02-15T07:41:02;19.47;;;8.73;;
5173;SDS011;2606;50.934;6.934;2023-02-15T07:43:36;23.40;;;10.90;;
5173;SDS011;2606;50.934;6.934;2023-02-15T07:46:04;22.57;;;11.03;;
5173;SDS011;2606;50.934;6.934;2023-02-15T07:48:32;22.80;;;10.13;;
5173;SDS011;2606;50.934;6.934;2023-02-15T07:50:59;20.07;;;8.87;;
5173;SDS011;2606;50.934;6.934;2023-02-15T07:53:25;19.03;;;9.50;;
5173;SDS011;2606;50.934;6.934;2023-02-15T07:55:51;25.23;;;9.77;;
5173;SDS011;2606;50.934;6.934;2023-02-15T07:58:17;22.63;;;9.83;;
5173;SDS011;2606;50.934;6.934;2023-02-15T08:00:43;19.27;;;9.27;;
5173;SDS011;2606;50.934;6.934;2023-02-15T08:03:26;19.77;;;10.30;;
5173;SDS011;2606;50.934;6.934;2023-02-15T08:05:57;19.87;;;9.80;;
5173;SDS011;2606;50.934;6.934;2023-02-15T08:08:23;18.70;;;10.27;;
5173;SDS011;2606;50.934;6.934;2023-02-15T08:10:59;19.87;;;9.40;;
5173;SDS011;2606;50.934;6.934;2023-02-15T08:13:45;21.47;;;9.93;;
5173;SDS011;2606;50.934;6.934;2023-02-15T08:18:58;18.13;;;8.83;;
5173;SDS011;2606;50.934;6.934;2023-02-15T08:21:26;25.27;;;10.17;;
5173;SDS011;2606;50.934;6.934;2023-02-15T08:23:52;20.10;;;9.03;;
5173;SDS011;2606;50.934;6.934;2023-02-15T08:26:19;21.03;;;9.90;;
5173;SDS011;2606;50.934;6.934;2023-02-15T08:28:45;20.10;;;9.13;;
5173;SDS011;2606;50.934;6.934;2023-02-15T08:31:12;19.43;;;9.80;;
5173;SDS011;2606;50.934;6.934;2023-02-15T08:33:38;21.27;;;9.10;;
5173;SDS011;2606;50.934;6.934;2023-02-15T08:36:07;21.70;;;10.33;;
5173;SDS011;2606;50.934;6.934;2023-02-15T08:38:35;14.60;;;7.93;;
5173;SDS011;2606;50.934;6.934;2023-02-15T08:41:17;19.23;;;8.77;;
5173;SDS011;2606;50.934;6.934;2023-02-15T08:43:48;17.47;;;8.57;;
5173;SDS011;2606;50.934;6.934;2023-02-15T08:46:18;17.20;;;8.67;;
5173;SDS011;2606;50.934;6.934;2023-02-15T08:48:45;23.20;;;10.43;;
5173;SDS011;2606;50.934;6.934;2023-02-15T08:51:18;20.70;;;9.87;;
5173;SDS011;2606;50.934;6.934;2023-02-15T08:53:48;18.93;;;10.13;;
5173;SDS011;2606;50.934;6.934;2023-02-15T08:56:17;19.07;;;8.90;;
5173;SDS011;2606;50.934;6.934;2023-02-15T08:58:45;17.87;;;9.50;;
5173;SDS011;2606;50.934;6.934;2023-02-15T09:01:12;17.73;;;7.83;;
5173;SDS011;2606;50.934;6.934;2023-02-15T09:03:46;15.53;;;8.90;;
5173;SDS011;2606;50.934;6.934;2023-02-15T09:06:13;21.43;;;9.77;;
5173;SDS011;2606;50.934;6.934;2023-02-15T09:08:40;18.00;;;8.73;;
5173;SDS011;2606;50.934;6.934;2023-02-15T09:11:07;16.67;;;8.60;;
5173;SDS011;2606;50.934;6.934;2023-02-15T09:13:33;18.83;;;7.60;;
5173;SDS011;2606;50.934;6.934;2023-02-15T09:16:00;14.63;;;7.90;;
5173;SDS011;2606;50.934;6.934;2023-02-15T09:18:30;15.97;;;8.07;;
5173;SDS011;2606;50.934;6.934;2023-02-15T09:21:03;18.20;;;8.60;;
5173;SDS011;2606;50.934;6.934;2023-02-15T09:23:30;16.73;;;8.77;;
5173;SDS011;2606;50.934;6.934;2023-02-15T09:25:55;21.03;;;9.60;;
5173;SDS011;2606;50.934;6.934;2023-02-15T09:28:21;19.47;;;10.43;;
5173;SDS011;2606;50.934;6.934;2023-02-15T09:30:46;16.03;;;9.17;;
5173;SDS011;2606;50.934;6.934;2023-02-15T09:33:12;18.50;;;8.40;;
5173;SDS011;2606;50.934;6.934;2023-02-15T09:35:38;17.20;;;9.17;;
5173;SDS011;2606;50.934;6.934;2023-02-15T09:38:03;16.20;;;8.50;;
5173;SDS011;2606;50.934;6.934;2023-02-15T09:40:29;17.50;;;8.60;;
5173;SDS011;2606;50.934;6.934;2023-02-15T09:43:06;14.90;;;8.33;;
5173;SDS011;2606;50.934;6.934;2023-02-15T09:46:02;21.30;;;9.93;;
5173;SDS011;2606;50.934;6.934;2023-02-15T09:48:43;21.70;;;7.53;;
5173;SDS011;2606;50.934;6.934;2023-02-15T09:51:19;15.90;;;7.60;;
5173;SDS011;2606;50.934;6.934;2023-02-15T09:54:09;15.27;;;8.40;;
5173;SDS011;2606;50.934;6.934;2023-02-15T09:56:58;18.10;;;8.40;;
5173;SDS011;2606;50.934;6.934;2023-02-15T10:04:56;16.40;;;8.33;;
5173;SDS011;2606;50.934;6.934;2023-02-15T10:16:19;16.00;;;8.20;;
5173;SDS011;2606;50.934;6.934;2023-02-15T10:19:20;18.33;;;8.10;;
5173;SDS011;2606;50.934;6.934;2023-02-15T10:21:48;14.63;;;8.40;;
5173;SDS011;2606;50.934;6.934;2023-02-15T10:27:11;15.70;;;7.67;;
5173;SDS011;2606;50.934;6.934;2023-02-15T10:29:39;16.20;;;7.43;;
5173;SDS011;2606;50.934;6.934;2023-02-15T10:32:24;17.40;;;7.60;;
5173;SDS011;2606;50.934;6.934;2023-02-15T10:51:17;13.50;;;7.53;;
5173;SDS011;2606;50.934;6.934;2023-02-15T10:54:14;16.90;;;8.33;;
5173;SDS011;2606;50.934;6.934;2023-02-15T11:07:52;15.83;;;8.20;;
5173;SDS011;2606;50.934;6.934;2023-02-15T11:12:48;19.97;;;9.43;;
5173;SDS011;2606;50.934;6.934;2023-02-15T11:15:36;14.80;;;8.03;;
5173;SDS011;2606;50.934;6.934;2023-02-15T11:18:56;16.03;;;8.43;;
5173;SDS011;2606;50.934;6.934;2023-02-15T11:21:02;17.00;;;9.37;;
5173;SDS011;2606;50.934;6.934;2023-02-15T11:24:07;16.13;;;8.40;;
5173;SDS011;2606;50.934;6.934;2023-02-15T11:26:46;13.73;;;8.67;;
5173;SDS011;2606;50.934;6.934;2023-02-15T11:29:29;20.30;;;9.50;;
5173;SDS011;2606;50.934;6.934;2023-02-15T11:32:20;15.30;;;8.10;;
5173;SDS011;2606;50.934;6.934;2023-02-15T11:37:18;18.00;;;9.30;;
5173;SDS011;2606;50.934;6.934;2023-02-15T11:39:46;20.20;;;9.53;;
5173;SDS011;2606;50.934;6.934;2023-02-15T11:42:17;15.23;;;8.30;;
5173;SDS011;2606;50.934;6.934;2023-02-15T11:47:22;13.50;;;7.50;;
5173;SDS011;2606;50.934;6.934;2023-02-15T11:49:48;13.90;;;8.10;;
5173;SDS011;2606;50.934;6.934;2023-02-15T11:52:14;21.40;;;9.30;;
5173;SDS011;2606;50.934;6.934;2023-02-15T11:54:43;18.60;;;9.87;;
5173;SDS011;2606;50.934;6.934;2023-02-15T11:57:14;17.10;;;8.80;;
5173;SDS011;2606;50.934;6.934;2023-02-15T11:59:46;17.50;;;8.90;;
5173;SDS011;2606;50.934;6.934;2023-02-15T12:02:18;14.20;;;8.70;;
5173;SDS011;2606;50.934;6.934;2023-02-15T12:04:48;26.83;;;10.40;;
5173;SDS011;2606;50.934;6.934;2023-02-15T12:07:22;17.80;;;8.50;;
5173;SDS011;2606;50.934;6.934;2023-02-15T12:10:05;17.67;;;8.87;;
5173;SDS011;2606;50.934;6.934;2023-02-15T12:12:42;15.70;;;7.90;;
5173;SDS011;2606;50.934;6.934;2023-02-15T12:15:10;20.37;;;10.60;;
5173;SDS011;2606;50.934;6.934;2023-02-15T12:17:40;21.33;;;9.40;;
5173;SDS011;2606;50.934;6.934;2023-02-15T12:22:39;18.70;;;8.73;;
5173;SDS011;2606;50.934;6.934;2023-02-15T12:25:33;18.07;;;8.90;;
5173;SDS011;2606;50.934;6.934;2023-02-15T12:28:03;15.10;;;8.10;;
5173;SDS011;2606;50.934;6.934;2023-02-15T12:30:41;14.80;;;7.93;;
5173;SDS011;2606;50.934;6.934;2023-02-15T12:36:03;17.93;;;7.37;;
5173;SDS011;2606;50.934;6.934;2023-02-15T12:38:35;16.90;;;8.30;;
5173;SDS011;2606;50.934;6.934;2023-02-15T12:41:05;15.87;;;7.90;;
5173;SDS011;2606;50.934;6.934;2023-02-15T12:44:02;13.07;;;7.30;;
5173;SDS011;2606;50.934;6.934;2023-02-15T12:46:30;11.97;;;6.90;;
5173;SDS011;2606;50.934;6.934;2023-02-15T12:51:48;22.80;;;9.03;;
5173;SDS011;2606;50.934;6.934;2023-02-15T12:55:01;18.83;;;9.30;;
5173;SDS011;2606;50.934;6.934;2023-02-15T12:57:39;15.17;;;8.03;;
5173;SDS011;2606;50.934;6.934;2023-02-15T12:59:59;18.80;;;9.10;;
5173;SDS011;2606;50.934;6.934;2023-02-15T13:02:29;14.23;;;7.40;;
5173;SDS011;2606;50.934;6.934;2023-02-15T13:05:22;15.97;;;8.70;;
5173;SDS011;2606;50.934;6.934;2023-02-15T13:08:35;14.57;;;9.30;;
5173;SDS011;2606;50.934;6.934;2023-02-15T13:10:57;15.83;;;9.00;;
5173;SDS011;2606;50.934;6.934;2023-02-15T13:13:36;16.20;;;7.80;;
5173;SDS011;2606;50.934;6.934;2023-02-15T13:16:44;19.93;;;9.00;;
5173;SDS011;2606;50.934;6.934;2023-02-15T13:19:28;26.53;;;10.97;;
5173;SDS011;2606;50.934;6.934;2023-02-15T13:21:59;18.80;;;8.70;;
5173;SDS011;2606;50.934;6.934;2023-02-15T13:24:39;24.63;;;12.48;;
5173;SDS011;2606;50.934;6.934;2023-02-15T13:27:09;25.13;;;11.60;;
5173;SDS011;2606;50.934;6.934;2023-02-15T13:29:38;16.23;;;9.70;;
5173;SDS011;2606;50.934;6.934;2023-02-15T13:32:11;20.10;;;10.63;;
5173;SDS011;2606;50.934;6.934;2023-02-15T13:34:47;16.60;;;7.93;;
5173;SDS011;2606;50.934;6.934;2023-02-15T13:40:02;16.83;;;8.00;;
5173;SDS011;2606;50.934;6.934;2023-02-15T13:47:51;15.07;;;7.83;;
5173;SDS011;2606;50.934;6.934;2023-02-15T13:50:31;15.47;;;7.77;;
5173;SDS011;2606;50.934;6.934;2023-02-15T13:55:57;17.80;;;8.60;;
5173;SDS011;2606;50.934;6.934;2023-02-15T14:09:33;18.37;;;9.60;;
5173;SDS011;2606;50.934;6.934;2023-02-15T14:15:13;14.87;;;8.00;;
5173;SDS011;2606;50.934;6.934;2023-02-15T14:20:17;21.70;;;8.73;;
5173;SDS011;2606;50.934;6.934;2023-02-15T14:26:00;16.70;;;9.13;;
5173;SDS011;2606;50.934;6.934;2023-02-15T14:28:49;15.77;;;7.83;;
5173;SDS011;2606;50.934;6.934;2023-02-15T14:31:30;13.60;;;7.87;;
5173;SDS011;2606;50.934;6.934;2023-02-15T14:34:02;19.10;;;8.10;;
5173;SDS011;2606;50.934;6.934;2023-02-15T14:36:29;17.40;;;9.10;;
5173;SDS011;2606;50.934;6.934;2023-02-15T14:41:37;15.03;;;7.80;;
5173;SDS011;2606;50.934;6.934;2023-02-15T14:44:09;19.10;;;8.13;;
5173;SDS011;2606;50.934;6.934;2023-02-15T14:49:40;16.53;;;8.30;;
5173;SDS011;2606;50.934;6.934;2023-02-15T14:52:07;15.33;;;8.30;;
5173;SDS011;2606;50.934;6.934;2023-02-15T15:02:21;15.50;;;8.17;;
5173;SDS011;2606;50.934;6.934;2023-02-15T15:08:05;14.63;;;7.90;;
5173;SDS011;2606;50.934;6.934;2023-02-15T15:10:40;15.80;;;8.10;;
5173;SDS011;2606;50.934;6.934;2023-02-15T15:18:50;16.10;;;8.40;;
5173;SDS011;2606;50.934;6.934;2023-02-15T15:40:41;21.43;;;8.40;;
5173;SDS011;2606;50.934;6.934;2023-02-15T15:48:41;20.23;;;9.63;;
5173;SDS011;2606;50.934;6.934;2023-02-15T15:51:12;21.37;;;9.80;;
5173;SDS011;2606;50.934;6.934;2023-02-15T15:53:45;18.13;;;9.63;;
5173;SDS011;2606;50.934;6.934;2023-02-15T15:56:17;17.90;;;10.20;;
5173;SDS011;2606;50.934;6.934;2023-02-15T15:58:50;18.17;;;9.47;;
5173;SDS011;2606;50.934;6.934;2023-02-15T16:01:23;19.47;;;11.50;;
5173;SDS011;2606;50.934;6.934;2023-02-15T16:03:54;16.90;;;8.90;;
5173;SDS011;2606;50.934;6.934;2023-02-15T16:06:33;18.50;;;9.63;;
5173;SDS011;2606;50.934;6.934;2023-02-15T16:11:50;24.37;;;9.87;;
5173;SDS011;2606;50.934;6.934;2023-02-15T16:14:26;14.37;;;8.47;;
5173;SDS011;2606;50.934;6.934;2023-02-15T16:16:57;17.07;;;8.30;;
5173;SDS011;2606;50.934;6.934;2023-02-15T16:19:27;16.30;;;8.80;;
5173;SDS011;2606;50.934;6.934;2023-02-15T16:21:57;18.33;;;8.63;;
5173;SDS011;2606;50.934;6.934;2023-02-15T16:33:02;12.90;;;8.23;;
5173;SDS011;2606;50.934;6.934;2023-02-15T16:35:33;21.00;;;9.57;;
5173;SDS011;2606;50.934;6.934;2023-02-15T16:38:00;16.67;;;8.60;;
5173;SDS011;2606;50.934;6.934;2023-02-15T16:40:29;18.00;;;9.30;;
5173;SDS011;2606;50.934;6.934;2023-02-15T16:43:00;18.87;;;9.53;;
5173;SDS011;2606;50.934;6.934;2023-02-15T16:45:28;21.23;;;8.50;;
5173;SDS011;2606;50.934;6.934;2023-02-15T16:47:57;17.80;;;9.90;;
5173;SDS011;2606;50.934;6.934;2023-02-15T16:50:25;15.93;;;10.03;;
5173;SDS011;2606;50.934;6.934;2023-02-15T16:52:55;23.10;;;10.20;;
5173;SDS011;2606;50.934;6.934;2023-02-15T16:55:23;20.10;;;9.37;;
5173;SDS011;2606;50.934;6.934;2023-02-15T16:58:13;21.75;;;10.73;;
5173;SDS011;2606;50.934;6.934;2023-02-15T17:00:41;18.13;;;10.10;;
5173;SDS011;2606;50.934;6.934;2023-02-15T17:10:37;21.90;;;9.50;;
5173;SDS011;2606;50.934;6.934;2023-02-15T17:13:10;15.93;;;8.37;;
5173;SDS011;2606;50.934;6.934;2023-02-15T17:18:46;16.40;;;8.87;;
5173;SDS011;2606;50.934;6.934;2023-02-15T17:21:23;21.20;;;9.73;;
5173;SDS011;2606;50.934;6.934;2023-02-15T17:23:56;18.63;;;9.87;;
5173;SDS011;2606;50.934;6.934;2023-02-15T17:26:32;15.03;;;9.37;;
5173;SDS011;2606;50.934;6.934;2023-02-15T17:29:02;23.93;;;11.57;;
5173;SDS011;2606;50.934;6.934;2023-02-15T17:31:39;23.53;;;11.10;;
5173;SDS011;2606;50.934;6.934;2023-02-15T17:34:05;20.27;;;10.27;;
5173;SDS011;2606;50.934;6.934;2023-02-15T17:36:31;20.40;;;9.63;;
5173;SDS011;2606;50.934;6.934;2023-02-15T17:41:32;30.93;;;12.57;;
5173;SDS011;2606;50.934;6.934;2023-02-15T17:43:59;21.40;;;11.20;;
5173;SDS011;2606;50.934;6.934;2023-02-15T17:46:25;21.77;;;11.83;;
5173;SDS011;2606;50.934;6.934;2023-02-15T17:48:57;22.33;;;11.23;;
5173;SDS011;2606;50.934;6.934;2023-02-15T17:51:22;18.07;;;10.33;;
5173;SDS011;2606;50.934;6.934;2023-02-15T17:53:48;25.73;;;13.40;;
5173;SDS011;2606;50.934;6.934;2023-02-15T17:56:33;27.97;;;13.17;;
5173;SDS011;2606;50.934;6.934;2023-02-15T17:58:59;24.77;;;12.17;;
5173;SDS011;2606;50.934;6.934;2023-02-15T18:01:25;19.73;;;11.47;;
5173;SDS011;2606;50.934;6.934;2023-02-15T18:04:11;23.90;;;9.97;;
5173;SDS011;2606;50.934;6.934;2023-02-15T18:06:56;16.10;;;9.70;;
5173;SDS011;2606;50.934;6.934;2023-02-15T18:09:41;22.67;;;10.13;;
5173;SDS011;2606;50.934;6.934;2023-02-15T18:12:29;18.40;;;9.73;;
5173;SDS011;2606;50.934;6.934;2023-02-15T18:14:56;19.40;;;10.30;;
5173;SDS011;2606;50.934;6.934;2023-02-15T18:19:59;24.43;;;11.17;;
5173;SDS011;2606;50.934;6.934;2023-02-15T18:22:29;18.63;;;9.60;;
5173;SDS011;2606;50.934;6.934;2023-02-15T18:24:55;19.73;;;9.57;;
5173;SDS011;2606;50.934;6.934;2023-02-15T18:27:20;21.17;;;11.23;;
5173;SDS011;2606;50.934;6.934;2023-02-15T18:29:46;22.27;;;11.50;;
5173;SDS011;2606;50.934;6.934;2023-02-15T18:32:16;24.97;;;9.60;;
5173;SDS011;2606;50.934;6.934;2023-02-15T18:34:53;19.17;;;9.67;;